Time;durP1;ratioP1;P1;durP2;ratioP2;P2;SDS_P1;SDS_P2;PMS_P1;PMS_P2;Temp;Humidity;BMP_temperature;BMP_pressure;BME280_temperature;BME280_humidity;BME280_pressure;Samples;Min_cycle;Max_cycle;Signal;HPM_P1;HPM_P2
2023/04/05 00:02:17;;;;;;;;;;;;;;;21.83;25.76;97004.53;5094301;28;969;-74
2023/04/05 00:04:49;;;;;;;;;;;;;;;21.64;25.94;96995.22;5094069;28;1060;-74
2023/04/05 00:07:16;;;;;;;;;;;;;;;22.03;25.41;96998.41;5094136;28;1066;-74
2023/04/05 00:09:42;;;;;;;;;;;;;;;22.10;25.45;96998.06;5093830;28;1975;-74
2023/04/05 00:12:08;;;;;;;;;;;;;;;22.23;25.36;96995.91;5093885;28;960;-74
2023/04/05 00:14:33;;;;;;;;;;;;;;;21.90;25.47;97006.25;5094225;28;927;-75
2023/04/05 00:16:59;;;;;;;;;;;;;;;22.03;25.27;97004.06;5061811;28;984;-74
2023/04/05 00:19:25;;;;;;;;;;;;;;;22.07;25.45;96999.00;5056051;28;906;-74
2023/04/05 00:21:53;;;;;;;;;;;;;;;22.19;25.44;97012.28;5088606;28;914;-74
2023/04/05 00:24:19;;;;;;;;;;;;;;;22.51;24.68;97015.69;5070961;28;929;-74
2023/04/05 00:26:45;;;;;;;;;;;;;;;22.34;25.11;97018.88;5038244;28;1423;-74
2023/04/05 00:29:10;;;;;;;;;;;;;;;22.26;24.94;97011.94;5087998;28;899;-74
2023/04/05 00:31:36;;;;;;;;;;;;;;;21.81;25.44;97021.19;5056054;28;1901;-75
2023/04/05 00:34:02;;;;;;;;;;;;;;;21.94;25.10;97006.88;5054664;28;1137;-74
2023/04/05 00:36:27;;;;;;;;;;;;;;;22.09;25.13;97002.16;5054538;28;1000;-74
2023/04/05 00:38:53;;;;;;;;;;;;;;;22.25;24.69;97010.38;5055995;28;908;-74
2023/04/05 00:41:19;;;;;;;;;;;;;;;22.11;25.46;97011.00;5071334;28;1113;-74
2023/04/05 00:43:45;;;;;;;;;;;;;;;22.39;24.72;96996.84;5088144;28;963;-74
2023/04/05 00:46:11;;;;;;;;;;;;;;;22.36;24.95;96999.34;5054585;28;1242;-74
2023/04/05 00:48:37;;;;;;;;;;;;;;;22.19;24.98;96995.28;5071289;28;1231;-74
2023/04/05 00:51:02;;;;;;;;;;;;;;;22.24;24.66;97003.16;5055747;28;1937;-74
2023/04/05 00:53:28;;;;;;;;;;;;;;;22.61;24.32;97001.03;5091086;28;895;-74
2023/04/05 00:55:53;;;;;;;;;;;;;;;22.86;24.05;97007.59;5058295;28;1431;-74
2023/04/05 00:58:21;;;;;;;;;;;;;;;22.65;23.93;96998.03;5058322;28;1137;-74
2023/04/05 01:00:50;;;;;;;;;;;;;;;22.35;24.82;96997.78;5074636;28;1064;-74
2023/04/05 01:03:15;;;;;;;;;;;;;;;22.24;24.49;97000.31;5059458;28;905;-74
2023/04/05 01:06:07;;;;;;;;;;;;;;;21.76;25.44;96991.47;5075327;28;1235;-74
2023/04/05 01:08:37;;;;;;;;;;;;;;;22.32;24.32;96997.94;5058792;28;1072;-74
2023/04/05 01:11:03;;;;;;;;;;;;;;;22.39;24.33;96999.66;5074298;28;1898;-74
2023/04/05 01:13:29;;;;;;;;;;;;;;;22.32;24.41;96995.88;5075030;28;1084;-74
2023/04/05 01:15:55;;;;;;;;;;;;;;;22.03;25.14;97004.06;5091244;28;1008;-73
2023/04/05 01:18:23;;;;;;;;;;;;;;;22.15;24.45;96994.63;5059024;28;1038;-73
2023/04/05 01:20:54;;;;;;;;;;;;;;;22.00;24.55;97008.63;5080048;28;1115;-74
2023/04/05 01:23:19;;;;;;;;;;;;;;;21.80;24.90;97000.56;5080281;28;1077;-74
2023/04/05 01:25:47;;;;;;;;;;;;;;;22.22;24.49;97002.03;5076574;28;1120;-74
2023/04/05 01:28:22;;;;;;;;;;;;;;;22.28;24.49;97009.44;5076455;28;950;-74
2023/04/05 01:31:08;;;;;;;;;;;;;;;22.42;24.25;97012.88;5076597;28;1971;-74
2023/04/05 01:33:48;;;;;;;;;;;;;;;22.10;24.80;97004.56;5020024;28;1211;-74
2023/04/05 01:36:15;;;;;;;;;;;;;;;22.06;24.52;97011.59;5036417;28;1201;-74
2023/04/05 01:38:41;;;;;;;;;;;;;;;21.92;25.06;97017.91;5019934;28;1032;-74
2023/04/05 01:41:06;;;;;;;;;;;;;;;22.00;24.80;97022.00;5020104;28;1029;-74
2023/04/05 01:43:32;;;;;;;;;;;;;;;21.94;24.98;97012.56;5020146;28;944;-74
2023/04/05 01:46:00;;;;;;;;;;;;;;;22.14;24.72;97020.63;5019992;28;919;-74
2023/04/05 01:48:25;;;;;;;;;;;;;;;22.16;24.68;97018.88;5020010;28;984;-74
2023/04/05 01:50:51;;;;;;;;;;;;;;;22.29;24.27;97019.50;5031037;28;1894;-74
2023/04/05 01:53:17;;;;;;;;;;;;;;;22.11;24.21;97022.34;5013235;28;1114;-74
2023/04/05 01:55:43;;;;;;;;;;;;;;;21.54;25.53;97033.25;4996830;28;1429;-74
2023/04/05 01:58:09;;;;;;;;;;;;;;;22.00;24.89;97024.81;5032775;28;1435;-74
2023/04/05 02:00:35;;;;;;;;;;;;;;;22.15;24.63;97022.97;5016165;28;1197;-74
2023/04/05 02:03:00;;;;;;;;;;;;;;;22.05;24.63;97024.19;5035729;28;960;-74
2023/04/05 02:05:26;;;;;;;;;;;;;;;21.82;25.01;97023.56;5036169;28;1245;-74
2023/04/05 02:07:51;;;;;;;;;;;;;;;21.67;25.17;97022.59;5052740;28;986;-74
2023/04/05 02:10:17;;;;;;;;;;;;;;;21.81;25.16;97027.66;5056370;28;1997;-74
2023/04/05 02:12:43;;;;;;;;;;;;;;;22.35;23.78;96957.31;5079254;28;1086;-74
2023/04/05 02:15:09;;;;;;;;;;;;;;;22.63;23.75;97018.34;5078936;28;987;-74
2023/04/05 02:17:38;;;;;;;;;;;;;;;22.49;23.94;97023.91;5079267;28;1212;-74
2023/04/05 02:20:06;;;;;;;;;;;;;;;22.27;24.21;97024.06;5063101;28;1794;-74
2023/04/05 02:22:31;;;;;;;;;;;;;;;21.85;24.73;97027.50;5055418;28;1191;-75
2023/04/05 02:24:57;;;;;;;;;;;;;;;21.85;24.65;97019.78;5039130;28;1097;-74
2023/04/05 02:27:22;;;;;;;;;;;;;;;22.46;24.01;97019.97;5038838;28;1114;-74
2023/04/05 02:29:48;;;;;;;;;;;;;;;22.36;24.18;97038.25;5038680;28;1973;-75
2023/04/05 02:32:14;;;;;;;;;;;;;;;22.40;23.99;97026.75;5038688;28;1168;-74
2023/04/05 02:34:40;;;;;;;;;;;;;;;22.34;24.19;97030.22;5036452;28;1099;-74
2023/04/05 02:37:05;;;;;;;;;;;;;;;22.07;24.04;97022.47;5051819;28;996;-74
2023/04/05 02:39:32;;;;;;;;;;;;;;;22.16;24.11;97024.53;5035323;28;1076;-75
2023/04/05 02:41:58;;;;;;;;;;;;;;;22.65;23.47;97037.75;5003284;28;1098;-74
2023/04/05 02:44:24;;;;;;;;;;;;;;;22.63;23.24;97029.69;5015694;28;1176;-74
2023/04/05 02:46:52;;;;;;;;;;;;;;;21.95;24.29;97026.25;5015448;28;1166;-74
2023/04/05 02:49:20;;;;;;;;;;;;;;;21.79;24.66;97030.16;5015317;28;996;-74
2023/04/05 02:51:46;;;;;;;;;;;;;;;21.81;24.42;97038.16;5031718;28;1981;-74
2023/04/05 02:54:11;;;;;;;;;;;;;;;22.41;23.87;97031.16;5077144;28;993;-74
2023/04/05 02:56:38;;;;;;;;;;;;;;;22.34;24.00;97027.38;5072593;28;1053;-74
2023/04/05 02:59:10;;;;;;;;;;;;;;;22.40;23.72;97027.53;5040662;28;1101;-75
2023/04/05 03:01:36;;;;;;;;;;;;;;;22.18;23.99;97022.03;5071590;28;1216;-74
2023/04/05 03:04:03;;;;;;;;;;;;;;;22.01;24.02;97023.56;5072017;28;1173;-74
2023/04/05 03:06:30;;;;;;;;;;;;;;;21.73;24.37;97037.69;5056101;28;1208;-73
2023/04/05 03:08:57;;;;;;;;;;;;;;;21.89;24.23;97033.00;5072420;28;1525;-74
2023/04/05 03:11:24;;;;;;;;;;;;;;;21.82;24.46;97037.72;5055808;28;1988;-74
2023/04/05 03:13:56;;;;;;;;;;;;;;;22.22;23.83;97031.16;5072687;28;1208;-74
2023/04/05 03:16:38;;;;;;;;;;;;;;;22.52;23.68;97042.78;5069244;28;1439;-74
2023/04/05 03:19:10;;;;;;;;;;;;;;;22.06;23.89;97037.09;5055616;28;1066;-75
2023/04/05 03:21:41;;;;;;;;;;;;;;;21.73;24.36;97040.53;5055516;28;1267;-74
2023/04/05 03:24:20;;;;;;;;;;;;;;;21.84;24.34;97049.34;5055872;28;1154;-74
2023/04/05 03:26:46;;;;;;;;;;;;;;;21.78;24.30;97045.56;5077510;28;1209;-74
2023/04/05 03:29:13;;;;;;;;;;;;;;;21.96;24.12;97050.47;5061038;28;1409;-74
2023/04/05 03:31:38;;;;;;;;;;;;;;;21.97;24.18;97059.78;5077753;28;1973;-74
2023/04/05 03:34:07;;;;;;;;;;;;;;;22.10;23.92;97055.56;5077359;28;1229;-74
2023/04/05 03:36:41;;;;;;;;;;;;;;;22.23;23.76;97055.41;5061993;28;1296;-75
2023/04/05 03:39:12;;;;;;;;;;;;;;;22.20;23.91;97053.50;5077698;28;1063;-74
2023/04/05 03:41:38;;;;;;;;;;;;;;;22.12;23.92;97063.56;5054079;28;1271;-74
2023/04/05 03:44:04;;;;;;;;;;;;;;;22.20;23.88;97076.19;5040297;28;1111;-74
2023/04/05 03:46:30;;;;;;;;;;;;;;;21.85;24.41;97070.75;5037579;28;1454;-74
2023/04/05 03:48:56;;;;;;;;;;;;;;;22.51;23.31;97063.91;5037450;28;1069;-75
2023/04/05 03:51:21;;;;;;;;;;;;;;;22.40;23.29;97077.75;5053958;28;1996;-75
2023/04/05 03:53:49;;;;;;;;;;;;;;;22.28;23.54;97082.34;5053942;28;1165;-74
2023/04/05 03:56:15;;;;;;;;;;;;;;;21.85;24.01;97084.91;5020759;28;1071;-74
2023/04/05 03:58:44;;;;;;;;;;;;;;;21.74;24.22;97090.25;5005022;28;1231;-74
2023/04/05 04:01:11;;;;;;;;;;;;;;;22.74;23.18;97080.25;5017322;28;1259;-75
2023/04/05 04:03:37;;;;;;;;;;;;;;;23.10;22.59;97078.59;5053787;28;1223;-74
2023/04/05 04:06:03;;;;;;;;;;;;;;;22.48;23.19;97087.50;5036873;28;1003;-74
2023/04/05 04:08:29;;;;;;;;;;;;;;;22.31;23.31;97087.81;5037191;28;1106;-74
2023/04/05 04:10:57;;;;;;;;;;;;;;;22.10;23.78;97102.91;5036927;28;1975;-74
2023/04/05 04:13:26;;;;;;;;;;;;;;;22.17;23.70;97096.94;5087997;28;1067;-74
2023/04/05 04:16:00;;;;;;;;;;;;;;;22.42;23.44;97103.56;5092876;28;1227;-74
2023/04/05 04:18:44;;;;;;;;;;;;;;;22.40;23.51;97101.22;5076897;28;1248;-74
2023/04/05 04:21:31;;;;;;;;;;;;;;;22.35;23.65;97111.13;5108014;28;1037;-74
2023/04/05 04:24:15;;;;;;;;;;;;;;;21.96;24.05;97117.66;5077127;28;1409;-74
2023/04/05 04:26:59;;;;;;;;;;;;;;;22.28;23.48;97119.97;5078355;28;1293;-73
2023/04/05 04:29:45;;;;;;;;;;;;;;;22.35;23.47;97122.47;5066020;28;1898;-74
2023/04/05 04:32:58;;;;;;;;;;;;;;;22.40;23.25;97125.94;5057277;28;994;-73
2023/04/05 04:35:27;;;;;;;;;;;;;;;22.32;23.59;97122.63;5037132;28;987;-74
2023/04/05 04:38:09;;;;;;;;;;;;;;;22.05;23.75;97123.34;5008725;28;1218;-74
2023/04/05 04:40:49;;;;;;;;;;;;;;;21.93;23.77;97129.94;5029698;28;1102;-74
2023/04/05 04:43:42;;;;;;;;;;;;;;;22.42;23.44;97138.38;5014034;28;1210;-74
2023/04/05 04:46:42;;;;;;;;;;;;;;;22.95;22.69;97128.75;5017262;28;1192;-73
2023/04/05 04:49:33;;;;;;;;;;;;;;;22.28;23.54;97142.63;4978139;28;1985;-74
2023/04/05 04:51:59;;;;;;;;;;;;;;;22.00;23.75;97138.13;4978278;28;1035;-73
2023/04/05 04:54:24;;;;;;;;;;;;;;;21.69;23.87;97141.81;4978245;28;1350;-74
2023/04/05 04:56:50;;;;;;;;;;;;;;;21.80;23.84;97145.00;4978300;28;1015;-74
2023/04/05 04:59:16;;;;;;;;;;;;;;;22.60;23.14;97140.44;4978058;28;1354;-73
2023/04/05 05:01:43;;;;;;;;;;;;;;;22.84;22.65;97135.69;4978057;28;1083;-73
2023/04/05 05:04:09;;;;;;;;;;;;;;;21.94;23.58;97143.63;4959989;28;1067;-73
2023/04/05 05:06:37;;;;;;;;;;;;;;;21.91;23.73;97150.22;4963498;28;1334;-74
2023/04/05 05:09:02;;;;;;;;;;;;;;;21.78;23.83;97143.91;4939232;29;1087;-73
2023/04/05 05:11:31;;;;;;;;;;;;;;;22.87;22.51;97140.41;4939391;29;1992;-73
2023/04/05 05:13:58;;;;;;;;;;;;;;;22.76;22.68;97145.78;4939691;29;988;-73
2023/04/05 05:16:26;;;;;;;;;;;;;;;22.43;22.97;97150.50;4939800;29;1394;-73
2023/04/05 05:18:52;;;;;;;;;;;;;;;21.98;23.65;97137.81;4939307;29;1398;-74
2023/04/05 05:21:19;;;;;;;;;;;;;;;21.93;23.69;97141.28;4939029;29;1318;-73
2023/04/05 05:23:51;;;;;;;;;;;;;;;21.77;23.74;97137.44;4958631;28;1247;-73
2023/04/05 05:26:17;;;;;;;;;;;;;;;22.11;23.48;97135.66;4980015;28;1236;-74
2023/04/05 05:28:43;;;;;;;;;;;;;;;22.52;22.94;97142.78;5016491;28;1025;-73
2023/04/05 05:31:08;;;;;;;;;;;;;;;23.04;22.53;97135.22;5034336;28;1914;-74
2023/04/05 05:33:35;;;;;;;;;;;;;;;22.19;23.35;97136.94;5039744;28;1472;-73
2023/04/05 05:36:02;;;;;;;;;;;;;;;21.88;23.70;97134.19;5056331;28;1063;-74
2023/04/05 05:38:28;;;;;;;;;;;;;;;21.79;23.96;97126.44;5006493;28;1251;-73
2023/04/05 05:40:54;;;;;;;;;;;;;;;22.25;23.44;97129.38;5006962;28;1125;-73
2023/04/05 05:43:20;;;;;;;;;;;;;;;22.06;23.47;97127.75;5056120;28;939;-73
2023/04/05 05:45:45;;;;;;;;;;;;;;;21.70;23.99;97123.56;5056388;28;961;-73
2023/04/05 05:48:11;;;;;;;;;;;;;;;21.70;23.93;97129.22;5040620;28;1031;-73
2023/04/05 05:50:38;;;;;;;;;;;;;;;22.40;22.89;97128.78;5057155;28;1898;-74
2023/04/05 05:53:03;;;;;;;;;;;;;;;22.01;23.71;97129.16;5073463;28;1094;-73
2023/04/05 05:55:29;;;;;;;;;;;;;;;22.38;23.18;97134.91;5090449;28;946;-74
2023/04/05 05:57:55;;;;;;;;;;;;;;;22.51;23.02;97140.44;5057108;28;1269;-74
2023/04/05 06:00:20;;;;;;;;;;;;;;;22.23;23.10;97137.59;5090288;28;859;-73
2023/04/05 06:02:46;;;;;;;;;;;;;;;21.71;23.95;97152.66;5090722;28;912;-74
2023/04/05 06:05:12;;;;;;;;;;;;;;;21.93;23.72;97152.59;5057228;28;1062;-73
2023/04/05 06:07:38;;;;;;;;;;;;;;;22.51;22.79;97146.09;5058064;28;927;-73
2023/04/05 06:10:04;;;;;;;;;;;;;;;22.59;22.73;97170.84;5090390;28;1917;-73
2023/04/05 06:12:30;;;;;;;;;;;;;;;22.36;23.17;97163.72;5073281;28;1200;-73
2023/04/05 06:14:55;;;;;;;;;;;;;;;21.88;23.75;97184.38;5090511;28;1034;-74
2023/04/05 06:17:21;;;;;;;;;;;;;;;21.66;24.04;97188.06;5057767;28;1055;-74
2023/04/05 06:19:46;;;;;;;;;;;;;;;22.12;23.67;97193.91;5090404;28;1010;-73
2023/04/05 06:22:12;;;;;;;;;;;;;;;22.99;22.41;97194.66;5056509;28;970;-74
2023/04/05 06:24:37;;;;;;;;;;;;;;;23.22;22.16;97205.34;5057802;28;846;-73
2023/04/05 06:27:03;;;;;;;;;;;;;;;22.41;22.98;97209.72;5078387;28;929;-73
2023/04/05 06:29:30;;;;;;;;;;;;;;;21.91;23.77;97217.41;5079045;28;1016;-73
2023/04/05 06:31:55;;;;;;;;;;;;;;;21.73;23.92;97212.47;5079050;28;1962;-74
2023/04/05 06:34:21;;;;;;;;;;;;;;;21.91;24.06;97223.06;5096074;28;912;-74
2023/04/05 06:36:46;;;;;;;;;;;;;;;22.59;23.11;97226.78;5078818;28;1056;-73
2023/04/05 06:39:13;;;;;;;;;;;;;;;22.35;23.43;97230.19;5078360;28;993;-74
2023/04/05 06:41:38;;;;;;;;;;;;;;;22.05;23.74;97228.16;5078834;28;1013;-73
2023/04/05 06:44:04;;;;;;;;;;;;;;;21.98;23.56;97228.47;5054806;28;1016;-73
2023/04/05 06:46:30;;;;;;;;;;;;;;;21.93;23.90;97221.38;5038377;28;1177;-74
2023/04/05 06:48:56;;;;;;;;;;;;;;;22.68;22.91;97235.25;5021675;28;1355;-74
2023/04/05 06:51:21;;;;;;;;;;;;;;;22.48;22.97;97226.41;5037302;28;1975;-74
2023/04/05 06:53:47;;;;;;;;;;;;;;;21.74;23.90;97223.31;5038300;28;1166;-73
2023/04/05 06:56:12;;;;;;;;;;;;;;;21.77;23.96;97219.56;5038088;28;1018;-74
2023/04/05 06:58:38;;;;;;;;;;;;;;;21.48;24.27;97217.03;5039943;28;968;-73
2023/04/05 07:01:04;;;;;;;;;;;;;;;22.60;23.26;97229.13;5034757;28;1011;-74
2023/04/05 07:03:29;;;;;;;;;;;;;;;22.27;23.27;97228.09;5018582;28;1111;-73
2023/04/05 07:05:56;;;;;;;;;;;;;;;22.06;23.76;97226.91;5018608;28;1182;-73
2023/04/05 07:08:22;;;;;;;;;;;;;;;21.88;23.67;97230.47;5018209;28;934;-73
2023/04/05 07:10:48;;;;;;;;;;;;;;;21.94;23.59;97239.13;5018140;28;1910;-73
2023/04/05 07:13:13;;;;;;;;;;;;;;;22.16;23.32;97237.03;5018058;28;1073;-74
2023/04/05 07:15:39;;;;;;;;;;;;;;;23.00;22.58;97231.06;5051143;28;1218;-73
2023/04/05 07:18:05;;;;;;;;;;;;;;;22.58;22.78;97236.50;5072008;28;1054;-73
2023/04/05 07:20:31;;;;;;;;;;;;;;;22.19;23.51;97241.78;5074253;28;1146;-73
2023/04/05 07:22:57;;;;;;;;;;;;;;;21.92;23.84;97224.66;5057776;28;1025;-73
2023/04/05 07:25:23;;;;;;;;;;;;;;;22.08;23.74;97238.56;5057789;28;1161;-73
2023/04/05 07:27:48;;;;;;;;;;;;;;;22.41;22.99;97249.41;5057552;28;1050;-74
2023/04/05 07:30:14;;;;;;;;;;;;;;;22.33;23.28;97252.53;5074140;28;1972;-73
2023/04/05 07:32:40;;;;;;;;;;;;;;;22.27;23.58;97245.09;5057722;28;902;-73
2023/04/05 07:35:06;;;;;;;;;;;;;;;21.80;23.84;97263.94;5040629;28;986;-73
2023/04/05 07:37:31;;;;;;;;;;;;;;;21.86;24.12;97261.28;5074185;28;1081;-74
2023/04/05 07:39:57;;;;;;;;;;;;;;;21.70;24.23;97264.34;5057422;28;1245;-74
2023/04/05 07:42:23;;;;;;;;;;;;;;;22.07;24.00;97268.94;5074170;28;1606;-73
2023/04/05 07:44:48;;;;;;;;;;;;;;;22.32;23.28;97275.66;5057145;28;1000;-73
2023/04/05 07:47:14;;;;;;;;;;;;;;;22.25;23.55;97268.25;5057316;28;1165;-74
2023/04/05 07:49:39;;;;;;;;;;;;;;;22.02;23.69;97275.22;5057519;28;1976;-74
2023/04/05 07:52:05;;;;;;;;;;;;;;;21.77;24.17;97270.53;5057452;28;985;-74
2023/04/05 07:54:32;;;;;;;;;;;;;;;21.87;23.88;97273.41;5057063;28;1208;-73
2023/04/05 07:56:58;;;;;;;;;;;;;;;22.14;23.60;97276.41;5055406;28;940;-72
2023/04/05 07:59:23;;;;;;;;;;;;;;;22.05;23.91;97277.13;5088493;28;906;-74
2023/04/05 08:01:49;;;;;;;;;;;;;;;22.16;23.79;97279.53;5071214;28;1144;-74
2023/04/05 08:04:15;;;;;;;;;;;;;;;21.98;23.63;97280.25;5088261;28;1171;-73
2023/04/05 08:06:40;;;;;;;;;;;;;;;22.28;23.20;97287.16;5038252;28;1161;-74
2023/04/05 08:09:07;;;;;;;;;;;;;;;22.58;22.81;97293.22;5087996;28;1232;-73
2023/04/05 08:11:34;;;;;;;;;;;;;;;22.55;22.85;97288.50;5087062;28;1901;-74
2023/04/05 08:14:00;;;;;;;;;;;;;;;21.96;23.86;97293.28;5071054;28;946;-73
2023/04/05 08:16:26;;;;;;;;;;;;;;;21.84;24.22;97287.25;5071252;28;1001;-74
2023/04/05 08:18:51;;;;;;;;;;;;;;;22.22;23.73;97289.00;5087860;28;900;-74
2023/04/05 08:21:17;;;;;;;;;;;;;;;21.94;23.82;97298.63;5071250;28;1233;-74
2023/04/05 08:23:43;;;;;;;;;;;;;;;22.03;23.83;97304.34;5089969;28;1097;-74
2023/04/05 08:26:08;;;;;;;;;;;;;;;21.84;24.18;97301.41;5073150;28;1112;-73
2023/04/05 08:28:34;;;;;;;;;;;;;;;21.99;23.88;97309.34;5073527;28;950;-73
2023/04/05 08:31:00;;;;;;;;;;;;;;;21.93;24.24;97302.72;5056429;28;1918;-74
2023/04/05 08:33:27;;;;;;;;;;;;;;;21.83;24.19;97313.19;5052941;28;1275;-74
2023/04/05 08:35:52;;;;;;;;;;;;;;;21.83;24.29;97318.88;5020144;28;1138;-74
2023/04/05 08:38:18;;;;;;;;;;;;;;;21.86;24.34;97323.59;5052971;28;928;-73
2023/04/05 08:40:45;;;;;;;;;;;;;;;21.76;24.12;97330.44;5036317;28;996;-73
2023/04/05 08:43:24;;;;;;;;;;;;;;;21.93;24.32;97334.66;5052820;28;966;-73
2023/04/05 08:45:50;;;;;;;;;;;;;;;21.78;24.23;97342.13;5032799;28;975;-73
2023/04/05 08:48:16;;;;;;;;;;;;;;;22.03;24.02;97339.13;5032859;28;968;-74
2023/04/05 08:50:48;;;;;;;;;;;;;;;22.13;24.12;97342.81;5032998;28;1922;-73
2023/04/05 08:53:13;;;;;;;;;;;;;;;22.31;23.90;97353.44;5033038;28;950;-73
2023/04/05 08:55:39;;;;;;;;;;;;;;;22.29;23.65;97339.75;4999023;28;1031;-73
2023/04/05 08:58:10;;;;;;;;;;;;;;;22.05;23.78;97341.47;4997025;28;1087;-74
2023/04/05 09:00:35;;;;;;;;;;;;;;;21.89;24.37;97338.88;5013380;28;944;-74
2023/04/05 09:03:01;;;;;;;;;;;;;;;22.01;23.99;97347.28;5013134;28;955;-73
2023/04/05 09:05:27;;;;;;;;;;;;;;;21.93;24.31;97346.00;5031447;28;1055;-74
2023/04/05 09:07:53;;;;;;;;;;;;;;;22.27;23.73;97347.91;5016786;28;1351;-73
2023/04/05 09:10:19;;;;;;;;;;;;;;;22.67;23.48;97349.97;5032613;28;1975;-73
2023/04/05 09:12:44;;;;;;;;;;;;;;;22.11;23.93;97345.31;5016682;28;988;-74
2023/04/05 09:15:10;;;;;;;;;;;;;;;21.82;24.39;97337.13;5036693;28;1110;-74
2023/04/05 09:17:36;;;;;;;;;;;;;;;21.79;24.67;97340.84;5069819;28;1035;-73
2023/04/05 09:20:02;;;;;;;;;;;;;;;22.15;23.95;97343.13;5043356;28;931;-73
2023/04/05 09:22:28;;;;;;;;;;;;;;;22.51;23.67;97344.56;5076445;28;1130;-73
2023/04/05 09:24:53;;;;;;;;;;;;;;;22.38;23.63;97352.38;5076559;28;1023;-73
2023/04/05 09:27:21;;;;;;;;;;;;;;;22.36;23.77;97350.78;5043201;28;1075;-74
2023/04/05 09:29:55;;;;;;;;;;;;;;;21.95;24.16;97339.84;5043900;28;1910;-73
2023/04/05 09:32:24;;;;;;;;;;;;;;;21.87;24.39;97341.41;5059700;28;925;-74
2023/04/05 09:34:50;;;;;;;;;;;;;;;21.89;24.37;97348.16;5059381;28;1054;-74
2023/04/05 09:37:25;;;;;;;;;;;;;;;22.25;23.88;97350.44;5044148;28;1117;-74
2023/04/05 09:39:51;;;;;;;;;;;;;;;22.53;23.93;97347.69;5042770;28;1134;-74
2023/04/05 09:42:18;;;;;;;;;;;;;;;22.05;24.43;97347.94;5058337;28;971;-73
2023/04/05 09:45:03;;;;;;;;;;;;;;;21.96;24.68;97349.91;5073368;28;1165;-74
2023/04/05 09:47:35;;;;;;;;;;;;;;;22.09;24.25;97348.59;5072079;28;1176;-74
2023/04/05 09:50:13;;;;;;;;;;;;;;;22.47;23.76;97353.19;5056965;28;1913;-73
2023/04/05 09:52:39;;;;;;;;;;;;;;;22.40;24.21;97347.03;5056857;28;1413;-74
2023/04/05 09:55:08;;;;;;;;;;;;;;;22.66;23.67;97351.22;5057039;28;1220;-73
2023/04/05 09:57:38;;;;;;;;;;;;;;;22.43;23.94;97361.03;5058174;28;916;-74
2023/04/05 10:00:09;;;;;;;;;;;;;;;22.71;23.39;97358.31;5090512;28;871;-73
2023/04/05 10:02:40;;;;;;;;;;;;;;;22.43;24.03;97360.25;5056568;28;966;-73
2023/04/05 10:05:06;;;;;;;;;;;;;;;22.28;24.37;97366.50;5073266;28;873;-74
2023/04/05 10:07:31;;;;;;;;;;;;;;;21.91;24.85;97359.03;5090248;28;872;-74
2023/04/05 10:09:57;;;;;;;;;;;;;;;21.95;24.51;97359.69;5078463;28;1961;-74
2023/04/05 10:12:26;;;;;;;;;;;;;;;21.80;25.17;97363.03;5095784;28;1008;-74
2023/04/05 10:14:51;;;;;;;;;;;;;;;22.04;24.46;97362.56;5023145;28;2057;-74
2023/04/05 10:17:28;;;;;;;;;;;;;;;22.20;24.67;97368.03;5075268;28;1032;-73
2023/04/05 10:20:12;;;;;;;;;;;;;;;22.52;23.93;97365.97;5058776;28;1025;-73
2023/04/05 10:22:47;;;;;;;;;;;;;;;21.73;24.99;97374.66;5075171;28;1055;-73
2023/04/05 10:25:19;;;;;;;;;;;;;;;21.74;25.30;97373.38;5074747;28;1018;-74
2023/04/05 10:27:47;;;;;;;;;;;;;;;22.54;23.98;97383.31;5058836;28;1181;-74
2023/04/05 10:30:13;;;;;;;;;;;;;;;23.12;23.02;97379.72;5058251;28;1914;-73
2023/04/05 10:32:48;;;;;;;;;;;;;;;22.71;23.65;97393.16;5074931;28;1022;-73
2023/04/05 10:35:19;;;;;;;;;;;;;;;22.26;24.36;97400.19;5075006;28;954;-73
2023/04/05 10:37:44;;;;;;;;;;;;;;;22.08;24.75;97391.56;5058574;28;1085;-74
2023/04/05 10:40:10;;;;;;;;;;;;;;;22.21;24.41;97395.13;5054575;28;1490;-73
2023/04/05 10:42:40;;;;;;;;;;;;;;;22.42;24.40;97404.03;5071910;28;947;-73
2023/04/05 10:45:10;;;;;;;;;;;;;;;21.89;25.01;97407.63;5075546;28;1031;-73
2023/04/05 10:47:41;;;;;;;;;;;;;;;22.08;24.82;97405.72;5092176;28;983;-74
2023/04/05 10:50:08;;;;;;;;;;;;;;;21.76;25.05;97410.56;5091198;28;1976;-73
2023/04/05 10:52:33;;;;;;;;;;;;;;;22.16;24.84;97409.88;5058395;28;942;-74
2023/04/05 10:54:59;;;;;;;;;;;;;;;22.26;24.38;97414.34;5041362;28;1205;-73
2023/04/05 10:57:24;;;;;;;;;;;;;;;22.49;24.38;97417.94;5057958;28;913;-73
2023/04/05 10:59:50;;;;;;;;;;;;;;;22.17;24.68;97422.00;5041392;28;1105;-74
2023/04/05 11:02:16;;;;;;;;;;;;;;;21.86;25.33;97414.22;5058226;28;951;-74
2023/04/05 11:04:41;;;;;;;;;;;;;;;22.14;24.73;97412.41;5057748;28;918;-73
2023/04/05 11:07:16;;;;;;;;;;;;;;;22.74;24.20;97420.59;5057991;28;950;-73
2023/04/05 11:10:00;;;;;;;;;;;;;;;22.61;24.15;97417.06;5057581;28;1188;-73
2023/04/05 11:12:44;;;;;;;;;;;;;;;22.03;24.95;97415.59;5057586;28;989;-74
2023/04/05 11:15:27;;;;;;;;;;;;;;;21.72;25.52;97415.53;5073980;28;928;-74
2023/04/05 11:18:02;;;;;;;;;;;;;;;21.93;25.39;97413.19;5074160;28;1476;-73
2023/04/05 11:20:38;;;;;;;;;;;;;;;22.65;24.41;97417.72;5070773;28;1172;-73
2023/04/05 11:23:04;;;;;;;;;;;;;;;22.96;23.71;97414.84;5070529;28;955;-74
2023/04/05 11:25:29;;;;;;;;;;;;;;;22.19;24.94;97419.50;5054167;28;1109;-74
2023/04/05 11:28:00;;;;;;;;;;;;;;;21.91;25.20;97421.34;5083813;28;1003;-73
2023/04/05 11:30:48;;;;;;;;;;;;;;;21.84;25.49;97411.84;5073753;28;1980;-73
2023/04/05 11:33:32;;;;;;;;;;;;;;;22.20;25.29;97416.22;5057338;28;1412;-74
2023/04/05 11:36:01;;;;;;;;;;;;;;;22.79;24.27;97422.78;5056669;28;1153;-74
2023/04/05 11:38:27;;;;;;;;;;;;;;;22.50;24.75;97422.38;5040643;28;1050;-74
2023/04/05 11:41:01;;;;;;;;;;;;;;;22.24;25.00;97416.88;5090791;28;929;-73
2023/04/05 11:43:27;;;;;;;;;;;;;;;22.02;25.09;97427.38;5076381;28;970;-74
2023/04/05 11:45:53;;;;;;;;;;;;;;;21.98;25.45;97421.88;5073635;28;1135;-75
2023/04/05 11:48:18;;;;;;;;;;;;;;;22.39;24.94;97422.00;5073730;28;988;-74
2023/04/05 11:50:44;;;;;;;;;;;;;;;22.32;25.18;97421.00;5091407;28;1905;-73
2023/04/05 11:53:13;;;;;;;;;;;;;;;22.45;24.90;97420.13;5076030;28;949;-74
2023/04/05 11:55:39;;;;;;;;;;;;;;;22.22;24.91;97418.56;5110471;28;1166;-74
2023/04/05 11:58:14;;;;;;;;;;;;;;;22.04;25.45;97416.41;5110684;28;1036;-74
2023/04/05 12:00:40;;;;;;;;;;;;;;;22.28;25.04;97417.53;5110478;28;1029;-74
2023/04/05 12:03:06;;;;;;;;;;;;;;;22.29;25.31;97419.09;5111108;28;966;-73
2023/04/05 12:05:46;;;;;;;;;;;;;;;22.26;25.14;97414.34;5093750;28;1004;-75
2023/04/05 12:08:12;;;;;;;;;;;;;;;21.98;25.52;97410.53;5093683;28;1067;-74
2023/04/05 12:10:37;;;;;;;;;;;;;;;21.76;25.73;97409.72;5093380;28;1913;-74
2023/04/05 12:13:03;;;;;;;;;;;;;;;21.84;25.87;97409.03;5110817;28;935;-74
2023/04/05 12:15:28;;;;;;;;;;;;;;;22.15;25.57;97413.97;5093699;28;1090;-73
2023/04/05 12:17:54;;;;;;;;;;;;;;;21.97;25.56;97408.19;5110427;28;1074;-73
2023/04/05 12:20:22;;;;;;;;;;;;;;;22.16;25.21;97412.72;5110675;28;971;-74
2023/04/05 12:22:48;;;;;;;;;;;;;;;22.48;25.09;97408.63;5093418;28;1124;-74
2023/04/05 12:25:14;;;;;;;;;;;;;;;22.52;24.88;97408.50;5110681;28;906;-74
2023/04/05 12:27:40;;;;;;;;;;;;;;;22.13;25.39;97402.31;5108165;28;978;-73
2023/04/05 12:30:14;;;;;;;;;;;;;;;22.19;25.37;97402.50;5074436;28;1988;-73
2023/04/05 12:32:43;;;;;;;;;;;;;;;21.89;25.69;97412.50;5074159;28;1111;-75
2023/04/05 12:35:12;;;;;;;;;;;;;;;21.90;25.90;97402.75;5075403;28;877;-73
2023/04/05 12:37:39;;;;;;;;;;;;;;;21.87;25.99;97404.50;5074694;28;1396;-74
2023/04/05 12:40:05;;;;;;;;;;;;;;;21.76;25.91;97404.88;5074422;28;1129;-73
2023/04/05 12:42:32;;;;;;;;;;;;;;;21.41;26.76;97409.00;5091170;28;924;-73
2023/04/05 12:45:03;;;;;;;;;;;;;;;21.52;26.39;97412.22;5074346;28;1783;-73
2023/04/05 12:47:28;;;;;;;;;;;;;;;21.96;25.76;97406.56;5092116;28;956;-74
2023/04/05 12:49:54;;;;;;;;;;;;;;;22.46;25.39;97405.47;5095168;28;1906;-73
2023/04/05 12:52:20;;;;;;;;;;;;;;;22.44;25.03;97404.38;5111798;28;972;-73
2023/04/05 12:54:52;;;;;;;;;;;;;;;22.03;25.76;97406.31;5077901;28;1144;-73
2023/04/05 12:57:18;;;;;;;;;;;;;;;21.69;26.06;97410.78;5079480;28;1068;-73
2023/04/05 12:59:44;;;;;;;;;;;;;;;21.60;26.48;97405.03;5094985;28;1137;-73
2023/04/05 13:02:09;;;;;;;;;;;;;;;22.15;25.77;97411.16;5093827;28;1359;-73
2023/04/05 13:04:35;;;;;;;;;;;;;;;22.29;25.53;97401.31;5078018;28;1116;-74
2023/04/05 13:07:00;;;;;;;;;;;;;;;22.29;25.70;97413.44;5111808;28;982;-73